This is the latest recevied weather packets stored in our database for station/object N5PRN. If no packets are shown the sender has not sent any weather packets the latest 1 day(s).
| Time | Temp. | Humidity | Pressure | Rain* | Wind** | Luminosity | Snow |
|---|---|---|---|---|---|---|---|
| 1778097027 | 25.56° C | 95% | 1009.8 hPa | 0 mm | - | 177 W/m² | - |
| 1778096118 | 25.56° C | 95% | 1009.8 hPa | 0 mm | - | 354 W/m² | - |
| 1778095815 | 25.56° C | 96% | 1010.4 hPa | 0 mm | - | 242 W/m² | - |
| 1778094601 | 26.67° C | 91% | 1010.2 hPa | 0 mm | - | 115 W/m² | - |
| 1778093994 | 27.22° C | 90% | 1010.6 hPa | 0 mm | - | 134 W/m² | - |
| 1778093383 | 27.22° C | 89% | 1011 hPa | 0 mm | - | 139 W/m² | - |
| 1778092777 | 27.78° C | 87% | 1011.3 hPa | 0 mm | - | 583 W/m² | - |
| 1778092170 | 26.67° C | 90% | 1011.6 hPa | 0 mm | - | 344 W/m² | - |
| 1778091867 | 27.22° C | 90% | 1011.6 hPa | 0 mm | - | 298 W/m² | - |
| 1778091564 | 27.22° C | 89% | 1011.7 hPa | 0 mm | - | 247 W/m² | - |
| 1778091262 | 26.67° C | 91% | 1011.8 hPa | 0 mm | - | 335 W/m² | - |
| 1778090352 | 26.67° C | 92% | 1012 hPa | 0 mm | - | 282 W/m² | - |
| 1778089746 | 25.56° C | 93% | 1011.8 hPa | 0 mm | - | 314 W/m² | - |
| 1778088230 | 26.67° C | 91% | 1011.9 hPa | 0 mm | - | 313 W/m² | - |
| 1778087928 | 26.11° C | 92% | 1012.2 hPa | 0 mm | - | 264 W/m² | - |
| 1778087625 | 26.11° C | 92% | 1012.2 hPa | 0 mm | - | 318 W/m² | - |
| 1778084890 | 25.56° C | 95% | 1012.6 hPa | 0 mm | - | 148 W/m² | - |
| 1778083680 | 25° C | 97% | 1012.3 hPa | 0 mm | - | 257 W/m² | - |
| 1778083076 | 25° C | 97% | 1012.6 hPa | 0 mm | - | 275 W/m² | - |
| 1778079524 | 23.89° C | 98% | 1012.1 hPa | 0 mm | - | 116 W/m² | - |
| 1778077708 | 23.33° C | 99% | 1012.1 hPa | 0 mm | - | 78 W/m² | - |
| 1778077406 | 23.33° C | 99% | 1012.2 hPa | 0 mm | - | 71 W/m² | - |
| 1778077104 | 23.33° C | 99% | 1011.9 hPa | 0 mm | - | 74 W/m² | - |
| 1778076196 | 23.33° C | 98% | 1011.9 hPa | 0 mm | - | 70 W/m² | - |
| 1778075893 | 23.33° C | 98% | 1012.1 hPa | 0 mm | - | 63 W/m² | - |
* Rain latest hour (hover to see other rain measurements)
** Current wind speed in m/s (hover to see current wind gust speed)